Comstock, Texas
Current Conditions -  °F | °C
As of 7:53 PM on Friday 24 Oct 2014 (Local Time) from KDRT Reporting Station
Clear Clear  
Wind Chill: 78°   Ceiling: Unl
Heat Index: 80°   Visibility: 10mi
Dew Point: 63°   Wind: 5mph
Humidity: 60%   Direction: 110°ESE
Pressure: 30.08"   Gusts: NA
Location:  29.68°N, 101.17°W
Report Text: KDRT 250053Z AUTO 11004KT 10SM CLR 26/17 A3008 RMK AO2 SLP173 T02560172
Loading
Personal Weather Stations






























Interactive Weather Map
Tropical Storm Tracking
New forecast layout! Learn more

10-Day Weather Forecast

Advertisements
Track Severe Weather on mobile